Dirección General De Aeronáutica Civil

Dirección Meteorológica de Chile - Servicios Climáticos

Informe General de Control de Calidad de la Estación

Listado de niveles de control de calidad para algunos parámetros
Estación Lord Cochrane Ad. (470001)
Fecha de Revisión de los datos :

Elementos

Registros Niveles de Control Total
Nivel 0 Nivel 1 Nivel 2 Nivel 3 Errores Porcentaje
01 Temperatura del Aire Seco 203.885 0 . 0 . 0 . 0 . 0 0.00 %
02 Temperatura de Rocío 100.755 0 . 0 . 0 . 0 . 0 0.00 %
03 Humedad Relativa del Aire 195.377 0 . 0 . 0 . 0 . 0 0.00 %
04 Temperatura Máxima PM 19.079 0 . 0 . 1 0.01 % 0 . 1 0.01 %
05 Temperatura Mínima AM 19.079 0 . 0 . 0 . 0 . 0 0.00 %
06 Viento a 10 m. de Altura 93.991 0 . 0 . 0 . 0 . 0 0.00 %
07 Agua Caida, Acumulada 6 Horas 61.916 0 . 386 0.62 % 0 . 0 . 386 0.62 %
08 Presión Atm. a Nivel de Estación (QFE) 194.600 0 . 0 . 0 . 0 . 0 0.00 %
09 Presión Atm. a Nivel Medio del Mar (QFF) 92.227 0 . 0 . 0 . 0 . 0 0.00 %
10 Presión Atm. Estándar OACI (QNH) 171.365 0 . 0 . 0 . 0 . 0 0.00 %
11 Tiempo Pasado Sinóptico 8.423 0 . 0 . 0 . 0 . 0 0.00 %
12 Tiempo Presente Sinóptico 89.492 0 . 8 0.01 % 0 . 0 . 8 0.01 %

Totales

1.250.189 . 0.0000 % . 0.0315 % . 0.0001 % . 0.0000 % 395 0.0316 %

Detalle de Errores Encontrados

Nivel Fecha del Dato Descripción Información Error Fecha Ingreso
1 1971-01-03 18:00:00 ts > 5.0 y ((ww >= 70 y ww <= 79) || (ww >= 85 y ww <= 88))) 88 2013-03-20 14:24:00
1 1971-11-16 15:00:00 ts > 5.0 y ((ww >= 70 y ww <= 79) || (ww >= 85 y ww <= 88))) 87 2013-03-20 14:26:00
1 1974-06-13 18:00:00 (ts - td > 5.0) y ((ww >= 40 y ww <= 49)) 45 2021-10-14 17:23:00
1 1974-06-13 21:00:00 (ts - td > 5.0) y ((ww >= 40 y ww <= 49)) 45 2021-10-14 17:25:00
1 1980-07-20 15:00:00 (ts - td > 5.0) y ((ww >= 40 y ww <= 49)) 45 2013-03-20 14:48:00
1 1983-10-12 21:00:00 ts > 5.0 y ((ww >= 70 y ww <= 79) || (ww >= 85 y ww <= 88))) 87 2013-03-20 14:57:00
1 1987-09-19 21:00:00 ts > 5.0 y ((ww >= 70 y ww <= 79) || (ww >= 85 y ww <= 88))) 87 2021-10-14 20:43:00
1 1989-03-28 18:00:00 ts > 5.0 y ((ww >= 70 y ww <= 79) || (ww >= 85 y ww <= 88))) 87 2013-03-20 15:11:00
1 2012-06-20 18:00:00 rrr = 0.1 y WW = 1 w1=2 w2=2 0.1 2012-06-20 17:47:00
1 2012-07-23 18:00:00 rrr = 3.2 y WW = 1 w1=2 w2=2 3.2 2012-07-23 17:51:00
1 2012-10-24 12:00:00 rrr = 0.4 y WW = 2 w1=2 w2=2 0.4 2012-10-24 11:56:00
1 2012-10-30 18:00:00 rrr = trazas y WW = 2 w1=2 w2=2 0.0 2012-10-30 18:55:00
1 2012-11-06 18:00:00 rrr = s/p y WW = 3 w1=6 w2=2 0.0 2012-11-06 17:48:00
1 2012-11-07 12:00:00 rrr = 0.6 y WW = 0 w1=1 w2=1 0.6 2012-11-07 12:02:00
1 2012-11-08 18:00:00 rrr = 0.2 y WW = 1 w1=2 w2=2 0.2 2012-11-08 17:50:00
1 2012-11-09 12:00:00 rrr = 0.6 y WW = 2 w1=1 w2=1 0.6 2012-11-09 12:10:00
1 2012-11-13 18:00:00 rrr = trazas y WW = 3 w1=2 w2=2 0.0 2012-11-13 17:54:00
1 2012-11-21 18:00:00 rrr = 0.2 y WW = 1 w1=2 w2=2 0.2 2012-11-21 17:59:00
1 2012-11-28 12:00:00 rrr = 0.4 y WW = 2 w1=2 w2=2 0.4 2012-11-28 12:04:00
1 2012-12-04 12:00:00 rrr = 1.2 y WW = 3 w1=2 w2=2 1.2 2012-12-04 12:07:00
1 2012-12-11 12:00:00 rrr = 0.6 y WW = 3 w1=2 w2=2 0.6 2012-12-11 12:10:00
1 2012-12-13 12:00:00 rrr = 0.6 y WW = 3 w1=2 w2=2 0.6 2012-12-13 12:31:00
1 2012-12-24 12:00:00 rrr = 0.4 y WW = 2 w1=1 w2=1 0.4 2012-12-24 12:56:00
1 2012-12-28 12:00:00 rrr = 6.6 y WW = 3 w1=2 w2=2 6.6 2012-12-31 13:10:00
1 2012-12-31 12:00:00 rrr = 0.4 y WW = 2 w1=2 w2=2 0.4 2012-12-31 12:54:00
1 2013-01-04 18:00:00 rrr = 1.3 y WW = 3 w1=2 w2=2 1.3 2013-01-04 18:13:00
1 2013-01-08 12:00:00 rrr = 0.6 y WW = 2 w1=2 w2=2 0.6 2013-01-08 12:01:00
1 2013-01-09 12:00:00 rrr = 0.2 y WW = 2 w1=2 w2=2 0.2 2013-01-09 11:58:00
1 2013-02-15 12:00:00 rrr = 2.0 y WW = 2 w1=2 w2=2 2.0 2013-03-07 12:40:00
1 2013-02-25 12:00:00 rrr = 2.1 y WW = 2 w1=2 w2=2 2.1 2013-03-07 15:43:00
1 2013-02-28 12:00:00 rrr = 0.2 y WW = 2 w1=2 w2=2 0.2 2013-03-07 15:58:00
1 2013-03-05 12:00:00 rrr = 0.2 y WW = 2 w1=2 w2=2 0.2 2013-03-07 16:07:00
1 2013-03-22 12:00:00 rrr = s/p y WW = 60 w1=6 w2=2 0.0 2013-03-22 11:59:00
1 2013-03-22 18:00:00 rrr = s/p y WW = 3 w1=6 w2=2 0.0 2013-03-22 17:57:00
1 2013-03-26 12:00:00 rrr = 5.8 y WW = 3 w1=2 w2=2 5.8 2013-03-26 11:59:00
1 2013-03-28 12:00:00 rrr = 2.4 y WW = 1 w1=2 w2=1 2.4 2013-03-28 11:59:00
1 2013-04-08 12:00:00 rrr = 7.0 y WW = 2 w1=1 w2=1 7.0 2013-04-08 11:58:00
1 2013-04-15 12:00:00 rrr = 0.4 y WW = 10 w1=4 w2=2 0.4 2013-04-16 15:36:00
1 2013-04-17 12:00:00 rrr = 0.4 y WW = 2 w1=2 w2=2 0.4 2013-04-18 12:16:00
1 2013-04-19 12:00:00 rrr = 6.2 y WW = 2 w1=2 w2=2 6.2 2013-04-19 11:57:00
1 2013-04-22 12:00:00 rrr = 3.8 y WW = 1 w1=2 w2=2 3.8 2013-04-22 11:59:00
1 2013-05-13 18:00:00 rrr = 0.1 y WW = 2 w1=2 w2=2 0.1 2013-05-13 17:59:00
1 2013-06-06 18:00:00 rrr = 0.2 y WW = 2 w1=2 w2=2 0.2 2013-06-06 17:49:00
1 2013-07-03 18:00:00 rrr = s/p y WW = 80 w1=8 w2=2 0.0 2013-07-03 18:02:00
1 2013-07-25 18:00:00 rrr = 0.4 y WW = 1 w1=2 w2=2 0.4 2013-07-25 17:53:00
1 2013-09-10 12:00:00 rrr = 13.4 y WW = 1 w1=2 w2=2 13.4 2013-09-12 13:30:00
1 2013-10-03 12:00:00 rrr = 2.6 y WW = 0 w1=0 w2=0 2.6 2013-10-04 13:27:00
1 2013-10-14 12:00:00 rrr = 6.4 y WW = 3 w1=2 w2=2 6.4 2013-10-15 20:45:00
1 2013-10-15 18:00:00 rrr = 0.2 y WW = 1 w1=2 w2=2 0.2 2013-10-15 17:58:00
1 2013-11-18 12:00:00 rrr = 4.8 y WW = 2 w1=2 w2=2 4.8 2013-11-19 18:52:00
1 2013-11-20 18:00:00 rrr = 0.4 y WW = 2 w1=2 w2=2 0.4 2013-11-20 18:00:00
1 2013-11-21 12:00:00 rrr = 0.4 y WW = 3 w1=2 w2=2 0.4 2013-11-21 11:57:00
1 2013-11-25 12:00:00 rrr = 4.0 y WW = 2 w1=2 w2=2 4.0 2013-11-25 12:03:00
1 2013-12-19 12:00:00 rrr = 0.2 y WW = 3 w1=2 w2=2 0.2 2013-12-19 12:10:00
1 2013-12-20 12:00:00 rrr = 0.2 y WW = 1 w1=2 w2=1 0.2 2013-12-20 12:19:00
1 2014-01-09 12:00:00 rrr = 0.2 y WW = 2 w1=2 w2=2 0.2 2014-01-09 11:55:00
1 2014-01-13 12:00:00 rrr = 0.2 y WW = 3 w1=1 w2=1 0.2 2014-01-13 12:45:00
1 2014-01-22 12:00:00 rrr = s/p y WW = 3 w1=8 w2=2 0.0 2014-01-22 11:58:00
1 2014-01-30 12:00:00 rrr = 0.8 y WW = 2 w1=0 w2=0 0.8 2014-01-30 12:27:00
1 2014-02-06 18:00:00 rrr = s/p y WW = 3 w1=8 w2=2 0.0 2014-02-06 18:00:00
1 2014-02-07 12:00:00 rrr = 0.4 y WW = 2 w1=2 w2=2 0.4 2014-02-07 12:02:00
1 2014-03-10 18:00:00 rrr = s/p y WW = 1 w1=8 w2=2 0.0 2014-03-10 17:56:00
1 2014-03-17 12:00:00 rrr = 2.6 y WW = 2 w1=1 w2=1 2.6 2014-03-17 12:05:00
1 2014-03-31 12:00:00 rrr = 1.0 y WW = 1 w1=2 w2=2 1.0 2014-03-31 11:59:00
1 2014-04-10 12:00:00 rrr = 0.4 y WW = 2 w1=2 w2=2 0.4 2014-04-10 11:59:00
1 2014-04-14 12:00:00 rrr = 1.6 y WW = 3 w1=2 w2=2 1.6 2014-04-14 11:58:00
1 2014-04-15 12:00:00 rrr = 13.6 y WW = 3 w1=1 w2=1 13.6 2014-04-15 11:58:00
1 2014-04-16 12:00:00 rrr = 8.4 y WW = 2 w1=2 w2=2 8.4 2014-04-16 11:57:00
1 2014-04-17 12:00:00 rrr = 1.2 y WW = 2 w1=2 w2=2 1.2 2014-04-17 12:00:00
1 2014-04-21 12:00:00 rrr = 18.2 y WW = 3 w1=2 w2=2 18.2 2014-04-21 12:10:00
1 2014-06-11 18:00:00 rrr = 0.8 y WW = 1 w1=2 w2=1 0.8 2014-06-11 18:20:00
1 2014-08-11 18:00:00 rrr = 2.8 y WW = 2 w1=2 w2=2 2.8 2014-08-11 17:56:00
1 2014-09-09 12:00:00 rrr = 5.4 y WW = 2 w1=1 w2=1 5.4 2014-09-09 12:37:00
1 2014-09-15 12:00:00 rrr = 2.2 y WW = 2 w1=2 w2=0 2.2 2014-09-15 12:09:00
1 2014-09-22 12:00:00 rrr = 17.4 y WW = 2 w1=2 w2=2 17.4 2014-09-22 11:56:00
1 2014-09-25 12:00:00 rrr = 0.4 y WW = 2 w1=1 w2=1 0.4 2014-09-25 12:22:00
1 2014-10-02 18:00:00 rrr = s/p y WW = 2 w1=8 w2=2 0.0 2014-10-02 18:01:00
1 2014-10-13 12:00:00 rrr = 4.0 y WW = 3 w1=1 w2=1 4.0 2014-10-13 12:20:00
1 2014-10-16 18:00:00 rrr = s/p y WW = 3 w1=8 w2=2 0.0 2014-10-16 17:52:00
1 2014-10-17 12:00:00 rrr = 0.2 y WW = 2 w1=2 w2=2 0.2 2014-10-17 12:10:00
1 2014-10-20 18:00:00 rrr = s/p y WW = 3 w1=6 w2=2 0.0 2014-10-20 17:59:00
1 2014-10-21 12:00:00 rrr = s/p y WW = 61 w1=6 w2=2 0.0 2014-10-21 12:05:00
1 2014-10-22 12:00:00 rrr = 5.6 y WW = 2 w1=2 w2=2 5.6 2014-10-22 12:01:00
1 2014-10-29 12:00:00 rrr = 0.2 y WW = 3 w1=2 w2=2 0.2 2014-10-29 11:56:00
1 2014-11-10 12:00:00 rrr = 3.4 y WW = 2 w1=2 w2=2 3.4 2014-11-10 11:54:00
1 2014-11-11 18:00:00 rrr = s/p y WW = 1 w1=8 w2=2 0.0 2014-11-11 17:55:00
1 2014-11-18 12:00:00 rrr = 12.2 y WW = 2 w1=2 w2=2 12.2 2014-11-18 11:55:00
1 2014-12-05 12:00:00 rrr = 0.6 y WW = 3 w1=2 w2=2 0.6 2014-12-05 11:57:00
1 2014-12-09 12:00:00 rrr = 3.0 y WW = 2 w1=2 w2=2 3.0 2014-12-09 11:52:00
1 2014-12-19 12:00:00 rrr = 10.6 y WW = 3 w1=2 w2=2 10.6 2014-12-19 12:04:00
1 2014-12-23 12:00:00 rrr = 0.6 y WW = 2 w1=0 w2=0 0.6 2014-12-23 11:55:00
1 2014-12-29 12:00:00 rrr = 5.8 y WW = 2 w1=2 w2=2 5.8 2014-12-29 11:52:00
1 2015-01-12 12:00:00 rrr = 35.0 y WW = 2 w1=1 w2=1 35.0 2015-01-12 11:58:00
1 2015-01-19 12:00:00 rrr = 13.0 y WW = 1 w1=1 w2=1 13.0 2015-01-19 12:00:00
1 2015-01-26 12:00:00 rrr = 0.6 y WW = 2 w1=2 w2=2 0.6 2015-01-26 11:58:00
1 2015-01-27 12:00:00 rrr = 1.0 y WW = 3 w1=1 w2=1 1.0 2015-01-27 12:03:00
1 2015-02-09 12:00:00 rrr = 4.4 y WW = 1 w1=1 w2=1 4.4 2015-02-09 12:00:00
1 2015-03-02 12:00:00 rrr = 4.0 y WW = 1 w1=2 w2=2 4.0 2015-03-02 11:57:00
1 2015-03-09 12:00:00 rrr = 13.4 y WW = 3 w1=1 w2=1 13.4 2015-03-09 11:55:00
1 2015-03-10 12:00:00 rrr = 3.8 y WW = 2 w1=2 w2=2 3.8 2015-03-10 11:58:00
1 2015-03-13 12:00:00 rrr = 1.4 y WW = 3 w1=1 w2=1 1.4 2015-03-13 11:56:00
1 2015-03-17 12:00:00 rrr = 6.4 y WW = 3 w1=2 w2=2 6.4 2015-03-17 12:16:00
1 2015-03-19 12:00:00 rrr = 1.0 y WW = 3 w1=2 w2=2 1.0 2015-03-19 12:02:00
1 2015-03-20 12:00:00 rrr = 0.2 y WW = 2 w1=0 w2=0 0.2 2015-03-20 11:56:00
1 2015-03-30 12:00:00 rrr = 7.4 y WW = 2 w1=2 w2=2 7.4 2015-03-30 12:02:00
1 2015-03-31 12:00:00 rrr = 1.0 y WW = 3 w1=2 w2=2 1.0 2015-03-31 12:00:00
1 2015-04-02 18:00:00 rrr = 3.2 y WW = 1 w1=1 w2=1 3.2 2015-04-02 17:51:00
1 2015-04-08 12:00:00 rrr = s/p y WW = 61 w1=2 w2=2 0.0 2015-04-08 11:54:00
1 2015-04-13 18:00:00 rrr = 0.2 y WW = 1 w1=2 w2=2 0.2 2015-04-13 17:50:00
1 2015-04-20 12:00:00 rrr = 2.8 y WW = 3 w1=2 w2=2 2.8 2015-04-20 11:55:00
1 2015-04-27 12:00:00 rrr = 6.0 y WW = 2 w1=1 w2=0 6.0 2015-04-27 11:55:00
1 2015-04-30 12:00:00 rrr = 1.8 y WW = 2 w1=1 w2=1 1.8 2015-04-30 12:13:00
1 2015-05-04 12:00:00 rrr = 1.4 y WW = 2 w1=1 w2=1 1.4 2015-05-04 12:19:00
1 2015-05-11 12:00:00 rrr = 0.8 y WW = 3 w1=2 w2=2 0.8 2015-05-11 12:39:00
1 2015-05-18 12:00:00 rrr = 38.8 y WW = 3 w1=2 w2=2 38.8 2015-05-18 12:27:00
1 2015-05-19 12:00:00 rrr = 0.4 y WW = 3 w1=2 w2=2 0.4 2015-05-19 12:06:00
1 2015-05-29 18:00:00 rrr = 0.6 y WW = 2 w1=2 w2=2 0.6 2015-05-29 17:52:00
1 2015-06-03 18:00:00 rrr = 1.0 y WW = 2 w1=2 w2=2 1.0 2015-06-03 17:56:00
1 2015-06-08 12:00:00 rrr = 2.0 y WW = 2 w1=0 w2=0 2.0 2015-06-08 12:01:00
1 2015-06-09 18:00:00 rrr = s/p y WW = 1 w1=8 w2=2 0.0 2015-06-09 17:52:00
1 2015-06-19 18:00:00 rrr = s/p y WW = 3 w1=6 w2=4 0.0 2015-06-19 17:57:00
1 2015-06-26 18:00:00 rrr = 0.4 y WW = 3 w1=2 w2=2 0.4 2015-06-26 17:50:00
1 2015-06-30 12:00:00 rrr = 0.8 y WW = 2 w1=2 w2=2 0.8 2015-07-01 12:56:00
1 2015-07-21 18:00:00 rrr = s/p y WW = 3 w1=8 w2=6 0.0 2015-07-21 18:08:00
1 2015-07-27 12:00:00 rrr = 7.8 y WW = 2 w1=2 w2=2 7.8 2015-07-27 11:53:00
1 2015-08-03 12:00:00 rrr = 0.4 y WW = 2 w1=2 w2=2 0.4 2015-08-03 11:52:00
1 2015-08-20 12:00:00 rrr = 0.8 y WW = 2 w1=2 w2=2 0.8 2015-08-20 11:54:00
1 2015-09-07 12:00:00 rrr = 0.6 y WW = 2 w1=1 w2=1 0.6 2015-09-07 12:05:00
1 2015-09-09 12:00:00 rrr = 1.4 y WW = 3 w1=2 w2=2 1.4 2015-09-09 12:05:00
1 2015-09-09 18:00:00 rrr = s/p y WW = 80 w1=8 w2=2 0.0 2015-09-09 17:59:00
1 2015-09-14 18:00:00 rrr = s/p y WW = 1 w1=8 w2=6 0.0 2015-09-14 17:59:00
1 2015-09-28 12:00:00 rrr = 2.4 y WW = 0 w1=0 w2=0 2.4 2015-09-28 11:56:00
1 2015-10-15 12:00:00 rrr = 0.4 y WW = 2 w1=2 w2=2 0.4 2015-10-15 11:51:00
1 2015-10-26 12:00:00 rrr = 0.2 y WW = 1 w1=1 w2=1 0.2 2015-10-26 11:56:00
1 2015-10-29 12:00:00 rrr = 0.2 y WW = 2 w1=2 w2=2 0.2 2015-10-29 11:59:00
1 2015-10-30 18:00:00 rrr = 6.0 y WW = 2 w1=2 w2=2 6.0 2015-10-30 17:48:00
1 2015-11-10 18:00:00 rrr = s/p y WW = 2 w1=6 w2=2 0.0 2015-11-10 17:51:00
1 2015-11-13 12:00:00 rrr = 2.8 y WW = 2 w1=2 w2=2 2.8 2015-11-13 11:52:00
1 2015-11-16 12:00:00 rrr = 4.2 y WW = 3 w1=2 w2=2 4.2 2015-11-16 12:16:00
1 2015-11-18 12:00:00 rrr = 0.2 y WW = 2 w1=2 w2=2 0.2 2015-11-18 11:56:00
1 2015-12-16 12:00:00 rrr = 0.4 y WW = 3 w1=2 w2=2 0.4 2015-12-16 11:56:00
1 2015-12-21 12:00:00 rrr = 3.6 y WW = 2 w1=2 w2=2 3.6 2015-12-21 11:56:00
1 2015-12-23 12:00:00 rrr = 0.2 y WW = 2 w1=1 w2=1 0.2 2015-12-23 11:55:00
1 2015-12-29 12:00:00 rrr = 1.2 y WW = 1 w1=0 w2=0 1.2 2015-12-29 12:21:00
1 2016-01-18 12:00:00 rrr = 0.4 y WW = 3 w1=2 w2=2 0.4 2016-01-18 11:58:00
1 2016-01-25 12:00:00 rrr = 0.8 y WW = 1 w1=0 w2=0 0.8 2016-01-26 12:42:00
1 2016-01-25 18:00:00 rrr = trazas y WW = 2 w1=2 w2=2 0.0 2016-01-25 18:00:00
1 2016-02-15 12:00:00 rrr = 1.8 y WW = 3 w1=1 w2=1 1.8 2016-02-16 12:45:00
1 2016-02-18 12:00:00 rrr = 0.2 y WW = 1 w1=1 w2=1 0.2 2016-02-18 12:14:00
1 2016-02-22 12:00:00 rrr = 1.6 y WW = 1 w1=0 w2=0 1.6 2016-02-22 11:57:00
1 2016-03-02 12:00:00 rrr = 0.2 y WW = 3 w1=2 w2=2 0.2 2016-03-02 11:59:00
1 2016-03-11 12:00:00 rrr = 0.2 y WW = 0 w1=0 w2=0 0.2 2016-03-11 11:54:00
1 2016-04-18 12:00:00 rrr = 2.0 y WW = 3 w1=2 w2=2 2.0 2016-04-18 12:44:00
1 2016-04-21 12:00:00 rrr = 1.2 y WW = 2 w1=0 w2=0 1.2 2016-04-21 11:57:00
1 2016-04-22 18:00:00 rrr = s/p y WW = 80 w1=8 w2=2 0.0 2016-04-22 18:06:00
1 2016-04-25 12:00:00 rrr = 3.6 y WW = 0 w1=0 w2=0 3.6 2016-04-25 12:00:00
1 2016-05-13 18:00:00 rrr = 0.2 y WW = 3 w1=2 w2=2 0.2 2016-05-13 18:02:00
1 2016-07-15 18:00:00 rrr = s/p y WW = 2 w1=8 w2=2 0.0 2016-07-15 18:04:00
1 2016-08-10 18:00:00 rrr = 1.8 y WW = 5 w1=4 w2=4 1.8 2016-08-11 15:13:00
1 2016-08-16 12:00:00 rrr = 1.6 y WW = 3 w1=2 w2=2 1.6 2016-08-16 12:12:00
1 2016-08-25 12:00:00 rrr = 0.2 y WW = 2 w1=2 w2=2 0.2 2016-08-25 11:55:00
1 2016-08-26 12:00:00 rrr = 3.4 y WW = 3 w1=2 w2=2 3.4 2016-08-26 12:39:00
1 2016-09-08 12:00:00 rrr = 2.6 y WW = 3 w1=1 w2=1 2.6 2016-09-08 11:58:00
1 2016-09-12 18:00:00 rrr = 1.8 y WW = 1 w1=2 w2=2 1.8 2016-09-12 17:56:00
1 2016-09-13 12:00:00 rrr = 1.8 y WW = 3 w1=2 w2=2 1.8 2016-09-13 11:58:00
1 2016-09-20 18:00:00 rrr = 0.2 y WW = 3 w1=2 w2=2 0.2 2016-09-20 17:54:00
1 2016-09-22 12:00:00 rrr = 0.2 y WW = 0 w1=0 w2=0 0.2 2016-09-22 11:55:00
1 2016-10-04 12:00:00 rrr = 0.8 y WW = 1 w1=1 w2=1 0.8 2016-10-04 12:36:00
1 2016-10-14 12:00:00 rrr = 1.0 y WW = 1 w1=0 w2=0 1.0 2016-10-14 11:56:00
1 2016-10-26 12:00:00 rrr = 2.4 y WW = 2 w1=0 w2=0 2.4 2016-10-26 12:07:00
1 2016-11-02 12:00:00 rrr = 7.4 y WW = 3 w1=1 w2=1 7.4 2016-11-02 12:23:00
1 2016-11-07 12:00:00 rrr = 5.4 y WW = 2 w1=1 w2=1 5.4 2016-11-07 12:58:00
1 2016-11-16 12:00:00 rrr = 3.0 y WW = 3 w1=1 w2=1 3.0 2016-11-16 11:56:00
1 2016-11-17 12:00:00 rrr = 0.2 y WW = 3 w1=2 w2=2 0.2 2016-11-17 11:59:00
1 2016-11-28 12:00:00 rrr = 1.6 y WW = 3 w1=2 w2=2 1.6 2016-11-28 12:56:00
1 2016-12-19 12:00:00 rrr = 14.4 y WW = 2 w1=2 w2=2 14.4 2016-12-19 11:57:00
1 2016-12-20 12:00:00 rrr = 14.0 y WW = 2 w1=2 w2=2 14.0 2016-12-20 11:51:00
1 2016-12-21 12:00:00 rrr = 11.5 y WW = 2 w1=2 w2=2 11.5 2016-12-21 12:35:00
1 2017-01-03 12:00:00 rrr = 24.4 y WW = 2 w1=2 w2=2 24.4 2017-01-03 11:56:00
1 2017-01-04 18:00:00 rrr = 0.4 y WW = 2 w1=2 w2=2 0.4 2017-01-04 17:55:00
1 2017-01-10 12:00:00 rrr = 1.2 y WW = 2 w1=1 w2=1 1.2 2017-01-10 12:19:00
1 2017-01-13 12:00:00 rrr = 0.2 y WW = 3 w1=2 w2=2 0.2 2017-01-13 15:48:00
1 2017-01-16 12:00:00 rrr = 10.4 y WW = 1 w1=2 w2=2 10.4 2017-01-16 11:59:00
1 2017-01-23 12:00:00 rrr = 3.6 y WW = 2 w1=2 w2=2 3.6 2017-01-23 11:57:00
1 2017-01-30 12:00:00 rrr = 0.6 y WW = 2 w1=2 w2=2 0.6 2017-01-30 11:58:00
1 2017-01-31 12:00:00 rrr = 1.6 y WW = 3 w1=1 w2=1 1.6 2017-01-31 11:59:00
1 2017-02-03 12:00:00 rrr = 1.0 y WW = 1 w1=0 w2=0 1.0 2017-02-03 13:43:00
1 2017-02-17 12:00:00 rrr = 0.4 y WW = 2 w1=1 w2=1 0.4 2017-02-17 11:55:00
1 2017-02-20 12:00:00 rrr = 13.2 y WW = 3 w1=2 w2=2 13.2 2017-02-20 13:55:00
1 2017-03-01 12:00:00 rrr = 7.2 y WW = 3 w1=1 w2=1 7.2 2017-03-01 12:23:00
1 2017-03-02 18:00:00 rrr = 0.4 y WW = 1 w1=2 w2=2 0.4 2017-03-02 17:53:00
1 2017-03-06 12:00:00 rrr = 0.2 y WW = 2 w1=0 w2=0 0.2 2017-03-06 11:54:00
1 2017-03-13 12:00:00 rrr = 4.0 y WW = 1 w1=0 w2=0 4.0 2017-03-14 13:06:00
1 2017-03-20 18:00:00 rrr = s/p y WW = 2 w1=8 w2=2 0.0 2017-03-20 17:56:00
1 2017-03-27 12:00:00 rrr = 0.8 y WW = 2 w1=2 w2=2 0.8 2017-03-27 11:57:00
1 2017-03-30 18:00:00 rrr = s/p y WW = 80 w1=6 w2=6 0.0 2017-03-30 17:54:00
1 2017-05-08 12:00:00 rrr = 4.8 y WW = 3 w1=1 w2=1 4.8 2017-05-08 12:44:00
1 2017-05-17 18:00:00 rrr = 0.6 y WW = 3 w1=4 w2=2 0.6 2017-05-17 18:09:00
1 2017-06-06 18:00:00 rrr = trazas y WW = 2 w1=2 w2=2 0.0 2017-06-06 17:36:00
1 2017-06-09 18:00:00 rrr = 4.6 y WW = 3 w1=2 w2=2 4.6 2017-06-09 17:53:00
1 2017-06-16 18:00:00 rrr = s/p y WW = 83 w1=8 w2=2 0.0 2017-06-16 18:19:00
1 2017-06-22 18:00:00 rrr = s/p y WW = 3 w1=8 w2=4 0.0 2017-06-22 17:59:00
1 2017-07-06 18:00:00 rrr = 0.6 y WW = 2 w1=2 w2=2 0.6 2017-07-06 17:56:00
1 2017-07-11 18:00:00 rrr = 0.2 y WW = 1 w1=2 w2=2 0.2 2017-07-11 17:55:00
1 2017-07-12 18:00:00 rrr = s/p y WW = 2 w1=5 w2=4 0.0 2017-07-12 17:51:00
1 2017-07-13 18:00:00 rrr = 1.0 y WW = 1 w1=2 w2=2 1.0 2017-07-14 18:28:00
1 2017-07-14 18:00:00 rrr = 2.0 y WW = 1 w1=2 w2=2 2.0 2017-07-14 18:28:00
1 2017-07-21 18:00:00 rrr = 1.8 y WW = 1 w1=2 w2=2 1.8 2017-07-21 17:59:00
1 2017-08-14 12:00:00 rrr = 2.6 y WW = 3 w1=2 w2=2 2.6 2017-08-14 11:56:00
1 2017-08-18 18:00:00 rrr = 0.2 y WW = 2 w1=2 w2=2 0.2 2017-08-18 17:54:00
1 2017-08-23 12:00:00 rrr = 9.0 y WW = 2 w1=2 w2=2 9.0 2017-08-24 16:55:00
1 2017-08-25 12:00:00 rrr = 0.2 y WW = 3 w1=2 w2=1 0.2 2017-08-25 11:52:00
1 2017-09-04 12:00:00 rrr = 2.0 y WW = 3 w1=1 w2=0 2.0 2017-09-04 12:09:00
1 2017-09-08 12:00:00 rrr = 2.0 y WW = 3 w1=2 w2=2 2.0 2017-09-08 12:11:00
1 2017-09-11 12:00:00 rrr = 0.8 y WW = 3 w1=2 w2=2 0.8 2017-09-11 11:59:00
1 2017-09-25 12:00:00 rrr = 8.4 y WW = 1 w1=1 w2=1 8.4 2017-09-25 12:19:00
1 2017-10-02 18:00:00 rrr = 0.8 y WW = 2 w1=2 w2=2 0.8 2017-10-02 18:09:00
1 2017-10-10 18:00:00 rrr = s/p y WW = 1 w1=5 w2=2 0.0 2017-10-10 18:21:00
1 2017-10-16 18:00:00 rrr = s/p y WW = 80 w1=8 w2=2 0.0 2017-10-16 17:58:00
1 2017-10-23 12:00:00 rrr = 3.6 y WW = 2 w1=2 w2=2 3.6 2017-10-23 20:54:00
1 2017-10-26 12:00:00 rrr = 0.2 y WW = 3 w1=2 w2=2 0.2 2017-10-26 19:10:00
1 2017-10-30 12:00:00 rrr = 0.4 y WW = 2 w1=2 w2=0 0.4 2017-10-30 15:22:00
1 2017-11-13 18:00:00 rrr = 0.2 y WW = 1 w1=2 w2=0 0.2 2017-11-13 17:53:00
1 2017-11-14 12:00:00 rrr = 0.2 y WW = 3 w1=2 w2=2 0.2 2017-11-14 12:52:00
1 2017-11-27 12:00:00 rrr = 0.8 y WW = 2 w1=2 w2=2 0.8 2017-12-04 18:28:00
1 2017-12-18 12:00:00 rrr = 0.6 y WW = 2 w1=0 w2=0 0.6 2017-12-19 20:19:00
1 2017-12-20 18:00:00 rrr = 0.2 y WW = 2 w1=2 w2=2 0.2 2017-12-20 17:58:00
1 2017-12-22 12:00:00 rrr = 0.2 y WW = 2 w1=2 w2=2 0.2 2017-12-22 11:56:00
1 2017-12-22 18:00:00 rrr = 0.8 y WW = 1 w1=2 w2=2 0.8 2017-12-22 17:55:00
1 2017-12-26 12:00:00 rrr = 28.8 y WW = 1 w1=0 w2=0 28.8 2017-12-28 13:57:00
1 2018-01-02 12:00:00 rrr = 0.2 y WW = 2 w1=1 w2=1 0.2 2018-01-02 12:31:00
1 2018-01-04 12:00:00 rrr = 0.6 y WW = 2 w1=2 w2=2 0.6 2018-01-04 11:56:00
1 2018-01-08 12:00:00 rrr = 3.0 y WW = 2 w1=2 w2=2 3.0 2018-01-08 11:54:00
1 2018-01-09 12:00:00 rrr = 0.2 y WW = 0 w1=0 w2=0 0.2 2018-01-09 11:56:00
1 2018-01-17 12:00:00 rrr = 1.8 y WW = 2 w1=2 w2=2 1.8 2018-01-17 11:55:00
1 2018-01-23 12:00:00 rrr = 0.4 y WW = 2 w1=2 w2=2 0.4 2018-01-25 12:40:00
1 2018-02-20 12:00:00 rrr = trazas y WW = 2 w1=2 w2=2 0.0 2018-02-20 11:53:00
1 2018-02-21 12:00:00 rrr = 0.6 y WW = 2 w1=2 w2=2 0.6 2018-02-21 11:56:00
1 2018-02-21 18:00:00 rrr = 0.8 y WW = 0 w1=2 w2=2 0.8 2018-02-21 17:53:00
1 2018-03-05 12:00:00 rrr = 0.3 y WW = 2 w1=2 w2=2 0.3 2018-03-05 11:56:00
1 2018-03-07 12:00:00 rrr = 0.6 y WW = 2 w1=3 w2=2 0.6 2018-03-07 11:53:00
1 2018-03-08 12:00:00 rrr = 3.0 y WW = 2 w1=1 w2=1 3.0 2018-03-08 12:40:00
1 2018-03-09 12:00:00 rrr = 7.6 y WW = 2 w1=2 w2=2 7.6 2018-03-09 14:54:00
1 2018-03-12 12:00:00 rrr = 5.4 y WW = 2 w1=2 w2=2 5.4 2018-03-12 15:49:00
1 2018-03-14 12:00:00 rrr = 7.0 y WW = 2 w1=1 w2=1 7.0 2018-03-14 12:18:00
1 2018-03-15 12:00:00 rrr = 0.4 y WW = 2 w1=2 w2=2 0.4 2018-03-15 11:56:00
1 2018-03-23 12:00:00 rrr = 1.6 y WW = 2 w1=2 w2=2 1.6 2018-03-23 11:56:00
1 2018-04-02 18:00:00 rrr = 2.4 y WW = 1 w1=2 w2=2 2.4 2018-04-02 17:54:00
1 2018-04-11 12:00:00 rrr = 0.2 y WW = 2 w1=2 w2=2 0.2 2018-04-11 11:59:00
1 2018-04-18 18:00:00 rrr = 0.8 y WW = 2 w1=2 w2=2 0.8 2018-04-18 17:53:00
1 2018-04-20 12:00:00 rrr = 3.8 y WW = 2 w1=2 w2=2 3.8 2018-04-23 14:34:00
1 2018-05-03 18:00:00 rrr = 4.0 y WW = 2 w1=2 w2=1 4.0 2018-05-03 18:06:00
1 2018-05-22 18:00:00 rrr = trazas y WW = 1 w1=2 w2=1 0.0 2018-05-22 17:56:00
1 2018-05-23 18:00:00 rrr = trazas y WW = 2 w1=4 w2=2 0.0 2018-05-23 17:59:00
1 2018-05-25 18:00:00 rrr = trazas y WW = 3 w1=2 w2=2 0.0 2018-05-25 17:58:00
1 2018-06-18 18:00:00 rrr = 0.2 y WW = 2 w1=2 w2=2 0.2 2018-06-18 17:55:00
1 2018-06-20 18:00:00 rrr = 3.2 y WW = 2 w1=2 w2=2 3.2 2018-06-20 17:54:00
1 2018-08-17 18:00:00 rrr = 0.6 y WW = 1 w1=2 w2=2 0.6 2018-08-17 17:55:00
1 2018-08-20 12:00:00 rrr = 2.2 y WW = 0 w1=0 w2=0 2.2 2018-08-20 18:38:00
1 2018-08-27 12:00:00 rrr = 3.8 y WW = 3 w1=2 w2=2 3.8 2018-08-27 12:08:00
1 2018-09-03 12:00:00 rrr = 26.6 y WW = 1 w1=2 w2=2 26.6 2018-09-03 12:22:00
1 2018-10-01 12:00:00 rrr = 0.2 y WW = 2 w1=2 w2=2 0.2 2018-10-01 15:48:00
1 2018-10-16 18:00:00 rrr = s/p y WW = 3 w1=8 w2=2 0.0 2018-10-16 17:59:00
1 2018-10-30 18:00:00 rrr = 0.4 y WW = 2 w1=0 w2=0 0.4 2018-10-30 17:54:00
1 2018-11-05 12:00:00 rrr = 9.4 y WW = 3 w1=2 w2=2 9.4 2018-11-05 13:53:00
1 2018-11-08 18:00:00 rrr = 0.2 y WW = 1 w1=2 w2=2 0.2 2018-11-08 17:54:00
1 2018-11-15 12:00:00 rrr = 0.6 y WW = 2 w1=1 w2=1 0.6 2018-11-15 12:54:00
1 2018-11-21 18:00:00 rrr = 1.2 y WW = 1 w1=2 w2=2 1.2 2018-11-22 16:51:00
1 2018-11-22 12:00:00 rrr = 0.8 y WW = 2 w1=2 w2=1 0.8 2018-11-22 16:52:00
1 2018-12-10 12:00:00 rrr = 3.2 y WW = 2 w1=2 w2=2 3.2 2018-12-10 11:56:00
1 2018-12-17 12:00:00 rrr = 7.8 y WW = 2 w1=2 w2=2 7.8 2018-12-17 11:58:00
1 2019-01-08 18:00:00 rrr = 1.6 y WW = 2 w1=2 w2=2 1.6 2019-01-08 17:54:00
1 2019-01-09 12:00:00 rrr = 4.0 y WW = 2 w1=0 w2=0 4.0 2019-01-09 12:17:00
1 2019-01-21 12:00:00 rrr = 1.2 y WW = 3 w1=2 w2=2 1.2 2019-01-21 12:07:00
1 2019-01-21 18:00:00 rrr = s/p y WW = 61 w1=2 w2=2 0.0 2019-01-22 20:04:00
1 2019-01-22 12:00:00 rrr = 4.2 y WW = 1 w1=0 w2=0 4.2 2019-01-22 19:56:00
1 2019-01-24 12:00:00 rrr = s/p y WW = 80 w1=8 w2=2 0.0 2019-01-24 11:56:00
1 2019-01-25 18:00:00 rrr = 1.4 y WW = 2 w1=2 w2=2 1.4 2019-01-25 17:55:00
1 2019-02-20 18:00:00 rrr = 0.4 y WW = 3 w1=2 w2=2 0.4 2019-02-20 22:33:00
1 2019-02-25 12:00:00 rrr = 5.0 y WW = 3 w1=2 w2=2 5.0 2019-03-15 13:26:00
1 2019-03-07 12:00:00 rrr = 0.8 y WW = 2 w1=0 w2=0 0.8 2019-03-07 12:53:00
1 2019-03-18 12:00:00 rrr = 2.2 y WW = 2 w1=2 w2=2 2.2 2019-03-18 11:56:00
1 2019-03-25 12:00:00 rrr = 5.4 y WW = 3 w1=2 w2=2 5.4 2019-03-25 12:20:00
1 2019-03-29 12:00:00 rrr = 0.2 y WW = 3 w1=2 w2=2 0.2 2019-03-29 12:20:00
1 2019-04-01 12:00:00 rrr = 0.2 y WW = 2 w1=2 w2=2 0.2 2019-04-02 18:04:00
1 2019-04-02 12:00:00 rrr = 2.8 y WW = 3 w1=1 w2=0 2.8 2019-04-02 12:32:00
1 2019-05-24 18:00:00 rrr = 0.6 y WW = 2 w1=2 w2=2 0.6 2019-05-24 17:56:00
1 2019-06-03 18:00:00 rrr = 0.8 y WW = 1 w1=2 w2=1 0.8 2019-06-03 17:56:00
1 2019-06-13 18:00:00 rrr = 1.6 y WW = 2 w1=2 w2=2 1.6 2019-06-13 18:01:00
1 2019-07-10 18:00:00 rrr = 0.6 y WW = 2 w1=2 w2=2 0.6 2019-07-10 17:57:00
1 2019-07-15 18:00:00 rrr = 6.8 y WW = 2 w1=2 w2=2 6.8 2019-07-17 17:47:00
1 2019-07-25 18:00:00 rrr = s/p y WW = 80 w1=8 w2=2 0.0 2019-07-25 17:52:00
1 2019-09-24 12:00:00 rrr = s/p y WW = 1 w1=8 w2=2 0.0 2019-09-24 11:59:00
1 2019-09-30 12:00:00 rrr = 6.6 y WW = 3 w1=0 w2=0 6.6 2019-09-30 11:57:00
1 2019-10-07 12:00:00 rrr = 2.4 y WW = 3 w1=2 w2=2 2.4 2019-10-07 12:20:00
1 2019-10-08 12:00:00 rrr = trazas y WW = 3 w1=1 w2=1 0.0 2019-10-08 11:59:00
1 2019-10-21 12:00:00 rrr = 1.0 y WW = 2 w1=0 w2=0 1.0 2019-11-13 16:14:00
1 2019-10-28 12:00:00 rrr = 1.4 y WW = 3 w1=2 w2=2 1.4 2019-10-28 12:24:00
1 2019-11-04 12:00:00 rrr = 35.2 y WW = 2 w1=2 w2=2 35.2 2019-11-04 11:59:00
1 2019-11-06 18:00:00 rrr = 0.8 y WW = 2 w1=2 w2=2 0.8 2019-11-06 17:53:00
1 2019-11-15 18:00:00 rrr = 2.0 y WW = 1 w1=2 w2=2 2.0 2019-11-15 17:55:00
1 2019-11-20 12:00:00 rrr = 0.2 y WW = 2 w1=2 w2=2 0.2 2019-11-20 12:01:00
1 2019-11-21 12:00:00 rrr = 4.6 y WW = 1 w1=0 w2=0 4.6 2019-11-21 11:58:00
1 2019-11-25 12:00:00 rrr = 1.4 y WW = 2 w1=2 w2=2 1.4 2019-11-25 11:56:00
1 2019-11-26 18:00:00 rrr = 1.4 y WW = 2 w1=2 w2=2 1.4 2019-11-26 18:06:00
1 2019-11-27 12:00:00 rrr = 1.0 y WW = 1 w1=0 w2=0 1.0 2019-11-27 11:55:00
1 2019-11-28 18:00:00 rrr = s/p y WW = 1 w1=8 w2=6 0.0 2019-11-28 17:54:00
1 2019-11-29 12:00:00 rrr = 0.2 y WW = 2 w1=2 w2=2 0.2 2019-11-29 11:56:00
1 2019-12-10 12:00:00 rrr = 20.0 y WW = 1 w1=2 w2=2 20.0 2019-12-10 12:00:00
1 2019-12-11 12:00:00 rrr = 4.6 y WW = 1 w1=2 w2=2 4.6 2019-12-11 11:55:00
1 2019-12-17 18:00:00 rrr = 0.4 y WW = 2 w1=2 w2=2 0.4 2019-12-17 17:55:00
1 2019-12-24 18:00:00 rrr = 0.6 y WW = 2 w1=2 w2=2 0.6 2019-12-24 17:55:00
1 2019-12-27 12:00:00 rrr = 1.4 y WW = 2 w1=2 w2=2 1.4 2019-12-27 11:57:00
1 2020-01-03 12:00:00 rrr = 0.6 y WW = 3 w1=2 w2=2 0.6 2020-01-03 12:10:00
1 2020-01-06 12:00:00 rrr = 0.4 y WW = 2 w1=2 w2=2 0.4 2020-01-07 13:47:00
1 2020-01-08 12:00:00 rrr = 2.4 y WW = 2 w1=2 w2=2 2.4 2020-01-09 13:38:00
1 2020-01-08 18:00:00 rrr = 0.2 y WW = 1 w1=2 w2=2 0.2 2020-01-09 13:39:00
1 2020-01-09 12:00:00 rrr = 1.0 y WW = 3 w1=1 w2=1 1.0 2020-01-09 13:37:00
1 2020-01-15 12:00:00 rrr = 1.2 y WW = 1 w1=2 w2=2 1.2 2020-01-15 11:55:00
1 2020-01-24 12:00:00 rrr = 0.2 y WW = 2 w1=2 w2=2 0.2 2020-01-24 11:57:00
1 2020-02-03 12:00:00 rrr = 14.2 y WW = 2 w1=2 w2=2 14.2 2020-02-04 11:25:00
1 2020-02-03 18:00:00 rrr = 1.6 y WW = 2 w1=2 w2=2 1.6 2020-02-04 11:26:00
1 2020-02-04 12:00:00 rrr = 0.4 y WW = 3 w1=2 w2=1 0.4 2020-02-04 11:56:00
1 2020-02-07 12:00:00 rrr = 0.6 y WW = 2 w1=2 w2=2 0.6 2020-02-07 11:58:00
1 2020-02-07 18:00:00 rrr = 0.2 y WW = 1 w1=2 w2=2 0.2 2020-02-07 17:55:00
1 2020-02-12 12:00:00 rrr = 3.4 y WW = 2 w1=0 w2=0 3.4 2020-02-12 11:57:00
1 2020-02-17 12:00:00 rrr = 8.0 y WW = 2 w1=2 w2=2 8.0 2020-02-17 13:24:00
1 2020-03-09 12:00:00 rrr = 9.4 y WW = 0 w1=0 w2=0 9.4 2020-03-09 12:00:00
1 2020-03-11 12:00:00 rrr = 0.2 y WW = 0 w1=0 w2=0 0.2 2020-03-11 12:00:00
1 2020-03-23 12:00:00 rrr = 0.2 y WW = 2 w1=2 w2=2 0.2 2020-03-23 11:57:00
1 2020-03-23 18:00:00 rrr = 1.6 y WW = 1 w1=2 w2=2 1.6 2020-03-23 17:57:00
1 2020-03-27 12:00:00 rrr = 0.2 y WW = 2 w1=2 w2=2 0.2 2020-03-27 11:57:00
1 2020-04-24 18:00:00 rrr = s/p y WW = 3 w1=8 w2=2 0.0 2020-04-24 18:03:00
1 2020-05-06 18:00:00 rrr = 2.6 y WW = 1 w1=1 w2=1 2.6 2020-05-06 17:56:00
1 2020-05-18 18:00:00 rrr = 4.0 y WW = 2 w1=2 w2=2 4.0 2020-05-18 17:56:00
1 2020-06-01 18:00:00 rrr = 1.0 y WW = 2 w1=2 w2=2 1.0 2020-06-01 17:54:00
1 2020-06-05 18:00:00 rrr = 0.6 y WW = 2 w1=2 w2=2 0.6 2020-06-08 14:22:00
1 2020-06-09 18:00:00 rrr = 4.2 y WW = 2 w1=2 w2=2 4.2 2020-06-09 17:54:00
1 2020-06-10 18:00:00 rrr = s/p y WW = 3 w1=8 w2=2 0.0 2020-06-10 17:56:00
1 2020-06-19 18:00:00 rrr = 1.6 y WW = 3 w1=2 w2=2 1.6 2020-06-19 17:55:00
1 2020-06-22 18:00:00 rrr = s/p y WW = 80 w1=8 w2=2 0.0 2020-06-22 17:36:00
1 2020-07-02 18:00:00 rrr = 1.0 y WW = 10 w1=2 w2=2 1.0 2020-07-03 13:09:00
1 2020-07-08 18:00:00 rrr = 0.2 y WW = 1 w1=2 w2=2 0.2 2020-07-08 17:56:00
1 2020-07-15 18:00:00 rrr = s/p y WW = 71 w1=2 w2=2 0.0 2020-07-15 17:55:00
1 2020-08-05 18:00:00 rrr = s/p y WW = 3 w1=8 w2=2 0.0 2020-08-05 17:58:00
1 2020-08-17 18:00:00 rrr = 0.8 y WW = 3 w1=2 w2=2 0.8 2020-08-17 18:04:00
1 2020-09-10 18:00:00 rrr = s/p y WW = 3 w1=8 w2=2 0.0 2020-09-10 17:49:00
1 2020-09-15 12:00:00 rrr = 0.4 y WW = 1 w1=0 w2=0 0.4 2020-09-15 11:57:00
1 2020-09-24 12:00:00 rrr = trazas y WW = 2 w1=0 w2=0 0.0 2020-09-24 11:55:00
1 2020-09-28 18:00:00 rrr = 1.0 y WW = 2 w1=2 w2=2 1.0 2020-09-28 17:55:00
1 2020-10-06 18:00:00 rrr = 1.8 y WW = 2 w1=2 w2=2 1.8 2020-10-06 17:55:00
1 2020-10-07 12:00:00 rrr = 2.2 y WW = 2 w1=2 w2=2 2.2 2020-10-07 11:58:00
1 2020-10-14 12:00:00 rrr = 3.2 y WW = 1 w1=1 w2=1 3.2 2020-10-14 12:22:00
1 2020-10-27 12:00:00 rrr = 0.8 y WW = 2 w1=2 w2=2 0.8 2020-10-27 11:57:00
1 2020-11-24 12:00:00 rrr = 0.8 y WW = 2 w1=0 w2=0 0.8 2020-11-24 11:56:00
1 2020-12-02 12:00:00 rrr = 0.4 y WW = 2 w1=1 w2=1 0.4 2020-12-02 11:59:00
1 2020-12-11 12:00:00 rrr = 1.0 y WW = 2 w1=2 w2=2 1.0 2020-12-14 12:35:00
1 2020-12-11 18:00:00 rrr = 1.0 y WW = 2 w1=2 w2=2 1.0 2020-12-11 17:56:00
1 2020-12-18 12:00:00 rrr = s/p y WW = 80 w1=8 w2=2 0.0 2020-12-18 12:15:00
1 2020-12-29 18:00:00 rrr = s/p y WW = 3 w1=8 w2=2 0.0 2020-12-29 17:56:00
1 2021-01-06 18:00:00 rrr = s/p y WW = 80 w1=8 w2=2 0.0 2021-01-06 17:56:00
1 2021-01-07 12:00:00 rrr = 0.4 y WW = 3 w1=1 w2=1 0.4 2021-01-07 12:36:00
1 2021-01-11 12:00:00 rrr = 9.8 y WW = 2 w1=1 w2=1 9.8 2021-01-11 12:02:00
1 2021-01-15 18:00:00 rrr = 2.6 y WW = 2 w1=2 w2=2 2.6 2021-01-15 18:56:00
1 2021-03-01 12:00:00 rrr = 8.6 y WW = 2 w1=2 w2=2 8.6 2021-03-01 13:19:00
1 2021-04-19 18:00:00 rrr = trazas y WW = 1 w1=1 w2=1 0.0 2021-04-19 17:57:00
1 2021-04-27 18:00:00 rrr = 14.8 y WW = 1 w1=2 w2=2 14.8 2021-04-27 17:56:00
1 2021-05-19 18:00:00 rrr = 0.2 y WW = 2 w1=2 w2=2 0.2 2021-05-19 17:54:00
1 2021-05-24 18:00:00 rrr = 1.4 y WW = 2 w1=2 w2=2 1.4 2021-05-24 17:58:00
1 2021-05-31 18:00:00 rrr = trazas y WW = 3 w1=2 w2=2 0.0 2021-05-31 17:53:00
1 2021-06-09 18:00:00 rrr = 3.6 y WW = 2 w1=2 w2=2 3.6 2021-06-09 17:57:00
1 2021-06-24 18:00:00 rrr = 0.6 y WW = 2 w1=2 w2=1 0.6 2021-06-24 18:00:00
1 2021-06-25 18:00:00 rrr = trazas y WW = 2 w1=2 w2=2 0.0 2021-06-25 17:59:00
1 2021-07-07 18:00:00 rrr = 0.2 y WW = 1 w1=2 w2=2 0.2 2021-07-07 18:00:00
1 2021-07-09 18:00:00 rrr = 0.2 y WW = 2 w1=2 w2=2 0.2 2021-07-09 17:59:00
1 2021-07-15 18:00:00 rrr = 0.8 y WW = 1 w1=2 w2=2 0.8 2021-07-15 17:56:00
1 2021-07-30 18:00:00 rrr = 1.0 y WW = 1 w1=2 w2=2 1.0 2021-07-30 17:53:00
1 2021-08-20 18:00:00 rrr = trazas y WW = 2 w1=2 w2=2 0.0 2021-08-21 23:17:00
1 2021-08-30 12:00:00 rrr = 4.0 y WW = 2 w1=2 w2=2 4.0 2021-08-30 12:58:00
1 2021-09-06 12:00:00 rrr = 0.6 y WW = 2 w1=0 w2=0 0.6 2021-09-06 11:57:00
1 2021-09-09 12:00:00 rrr = 0.2 y WW = 2 w1=2 w2=2 0.2 2021-09-09 11:57:00
1 2021-09-13 12:00:00 rrr = 4.8 y WW = 3 w1=1 w2=1 4.8 2021-09-13 13:04:00
1 2021-09-16 12:00:00 rrr = 0.4 y WW = 2 w1=2 w2=2 0.4 2021-09-16 11:56:00
1 2021-09-24 18:00:00 rrr = 7.0 y WW = 3 w1=2 w2=2 7.0 2021-09-24 17:59:00
1 2021-10-05 12:00:00 rrr = 2.0 y WW = 2 w1=0 w2=0 2.0 2021-10-05 12:03:00
1 2021-10-12 12:00:00 rrr = 0.8 y WW = 2 w1=0 w2=0 0.8 2021-10-13 12:26:00
1 2021-10-20 18:00:00 rrr = 0.2 y WW = 2 w1=2 w2=2 0.2 2021-10-20 18:00:00
1 2021-11-10 18:00:00 rrr = 0.2 y WW = 1 w1=0 w2=0 0.2 2021-11-10 17:55:00
1 2021-11-11 12:00:00 rrr = 0.2 y WW = 2 w1=1 w2=1 0.2 2021-11-11 13:30:00
1 2021-11-15 12:00:00 rrr = 1.4 y WW = 1 w1=1 w2=1 1.4 2021-11-15 14:59:00
1 2021-11-22 12:00:00 rrr = 1.6 y WW = 2 w1=0 w2=0 1.6 2021-11-22 14:27:00
1 2021-12-02 12:00:00 rrr = 5.4 y WW = 3 w1=2 w2=2 5.4 2021-12-02 12:02:00
1 2021-12-13 12:00:00 rrr = 11.0 y WW = 2 w1=2 w2=2 11.0 2021-12-13 12:39:00
1 2021-12-27 12:00:00 rrr = 1.6 y WW = 2 w1=0 w2=0 1.6 2021-12-27 12:01:00
Errores del Nivel 394
Nivel Fecha del Dato Descripción Información Error Fecha Ingreso
2 2019-07-21 00:00:00 Temperatura 6.0 del 20-07-2019 18:00, Mayor que la Máxima 5.1 21-07-2019 00:00 6.0 -- 5.1 2019-07-22 13:17:00
Errores del Nivel 1
Informe generado el 23-02-2024 10:00
Requerimiento: RE6001